sensor_id;sensor_type;location;lat;lon;timestamp;temperature;humidity
76211;DHT22;65003;49.518;11.280;2023-04-24T00:00:16;12.00;94.40
76211;DHT22;65003;49.518;11.280;2023-04-24T00:02:42;12.20;94.10
76211;DHT22;65003;49.518;11.280;2023-04-24T00:05:09;12.20;94.00
76211;DHT22;65003;49.518;11.280;2023-04-24T00:07:35;12.20;94.00
76211;DHT22;65003;49.518;11.280;2023-04-24T00:10:02;12.10;94.20
76211;DHT22;65003;49.518;11.280;2023-04-24T00:12:29;12.10;94.30
76211;DHT22;65003;49.518;11.280;2023-04-24T00:14:55;12.00;94.50
76211;DHT22;65003;49.518;11.280;2023-04-24T00:17:22;11.90;94.50
76211;DHT22;65003;49.518;11.280;2023-04-24T00:19:48;11.90;94.60
76211;DHT22;65003;49.518;11.280;2023-04-24T00:22:15;11.90;94.70
76211;DHT22;65003;49.518;11.280;2023-04-24T00:24:42;11.90;94.60
76211;DHT22;65003;49.518;11.280;2023-04-24T00:27:08;11.90;94.60
76211;DHT22;65003;49.518;11.280;2023-04-24T00:29:35;12.00;94.50
76211;DHT22;65003;49.518;11.280;2023-04-24T00:32:02;11.90;94.50
76211;DHT22;65003;49.518;11.280;2023-04-24T00:34:28;11.90;94.50
76211;DHT22;65003;49.518;11.280;2023-04-24T00:36:55;11.90;94.60
76211;DHT22;65003;49.518;11.280;2023-04-24T00:39:21;11.80;94.60
76211;DHT22;65003;49.518;11.280;2023-04-24T00:41:48;11.80;94.70
76211;DHT22;65003;49.518;11.280;2023-04-24T00:44:14;11.80;94.80
76211;DHT22;65003;49.518;11.280;2023-04-24T00:46:41;11.70;94.90
76211;DHT22;65003;49.518;11.280;2023-04-24T00:49:08;11.70;95.00
76211;DHT22;65003;49.518;11.280;2023-04-24T00:51:34;11.70;94.90
76211;DHT22;65003;49.518;11.280;2023-04-24T00:54:01;11.70;94.90
76211;DHT22;65003;49.518;11.280;2023-04-24T00:56:27;11.70;95.00
76211;DHT22;65003;49.518;11.280;2023-04-24T00:58:54;11.60;95.10
76211;DHT22;65003;49.518;11.280;2023-04-24T01:01:21;11.60;95.10
76211;DHT22;65003;49.518;11.280;2023-04-24T01:03:49;11.80;94.80
76211;DHT22;65003;49.518;11.280;2023-04-24T01:06:14;11.80;94.70
76211;DHT22;65003;49.518;11.280;2023-04-24T01:08:40;11.80;94.80
76211;DHT22;65003;49.518;11.280;2023-04-24T01:11:07;11.80;94.90
76211;DHT22;65003;49.518;11.280;2023-04-24T01:13:34;11.80;94.80
76211;DHT22;65003;49.518;11.280;2023-04-24T01:16:00;11.90;94.70
76211;DHT22;65003;49.518;11.280;2023-04-24T01:18:27;11.90;94.30
76211;DHT22;65003;49.518;11.280;2023-04-24T01:20:56;12.00;94.30
76211;DHT22;65003;49.518;11.280;2023-04-24T01:23:20;12.00;93.90
76211;DHT22;65003;49.518;11.280;2023-04-24T01:25:47;11.90;94.10
76211;DHT22;65003;49.518;11.280;2023-04-24T01:28:13;11.80;94.40
76211;DHT22;65003;49.518;11.280;2023-04-24T01:30:40;11.70;94.50
76211;DHT22;65003;49.518;11.280;2023-04-24T01:33:07;11.70;94.70
76211;DHT22;65003;49.518;11.280;2023-04-24T01:35:33;11.70;94.60
76211;DHT22;65003;49.518;11.280;2023-04-24T01:38:00;11.60;94.70
76211;DHT22;65003;49.518;11.280;2023-04-24T01:40:26;11.60;94.80
76211;DHT22;65003;49.518;11.280;2023-04-24T01:42:53;11.70;94.60
76211;DHT22;65003;49.518;11.280;2023-04-24T01:45:19;11.60;95.00
76211;DHT22;65003;49.518;11.280;2023-04-24T01:47:46;11.50;94.80
76211;DHT22;65003;49.518;11.280;2023-04-24T01:50:13;11.60;95.10
76211;DHT22;65003;49.518;11.280;2023-04-24T01:52:39;11.90;94.00
76211;DHT22;65003;49.518;11.280;2023-04-24T01:55:06;12.10;93.50
76211;DHT22;65003;49.518;11.280;2023-04-24T01:57:33;12.20;93.40
76211;DHT22;65003;49.518;11.280;2023-04-24T02:00:00;12.20;93.40
76211;DHT22;65003;49.518;11.280;2023-04-24T02:02:26;10.50;93.10
76211;DHT22;65003;49.518;11.280;2023-04-24T02:04:53;12.20;93.40
76211;DHT22;65003;49.518;11.280;2023-04-24T02:07:20;12.10;93.60
76211;DHT22;65003;49.518;11.280;2023-04-24T02:09:46;12.00;93.90
76211;DHT22;65003;49.518;11.280;2023-04-24T02:12:13;11.90;94.00
76211;DHT22;65003;49.518;11.280;2023-04-24T02:14:39;11.90;94.30
76211;DHT22;65003;49.518;11.280;2023-04-24T02:17:06;11.80;94.50
76211;DHT22;65003;49.518;11.280;2023-04-24T02:19:33;11.80;94.60
76211;DHT22;65003;49.518;11.280;2023-04-24T02:21:59;11.80;94.60
76211;DHT22;65003;49.518;11.280;2023-04-24T02:24:26;12.00;94.40
76211;DHT22;65003;49.518;11.280;2023-04-24T02:26:53;12.10;94.10
76211;DHT22;65003;49.518;11.280;2023-04-24T02:29:19;12.10;93.80
76211;DHT22;65003;49.518;11.280;2023-04-24T02:31:46;12.10;93.80
76211;DHT22;65003;49.518;11.280;2023-04-24T02:34:12;12.00;93.80
76211;DHT22;65003;49.518;11.280;2023-04-24T02:36:39;11.90;93.80
76211;DHT22;65003;49.518;11.280;2023-04-24T02:39:05;11.90;93.90
76211;DHT22;65003;49.518;11.280;2023-04-24T02:41:32;11.90;94.10
76211;DHT22;65003;49.518;11.280;2023-04-24T02:43:59;11.90;93.90
76211;DHT22;65003;49.518;11.280;2023-04-24T02:46:25;11.80;94.00
76211;DHT22;65003;49.518;11.280;2023-04-24T02:48:52;11.80;93.90
76211;DHT22;65003;49.518;11.280;2023-04-24T02:51:18;11.80;94.00
76211;DHT22;65003;49.518;11.280;2023-04-24T02:53:45;11.70;94.10
76211;DHT22;65003;49.518;11.280;2023-04-24T02:56:12;11.60;94.30
76211;DHT22;65003;49.518;11.280;2023-04-24T02:58:38;11.60;94.40
76211;DHT22;65003;49.518;11.280;2023-04-24T03:01:05;11.60;94.20
76211;DHT22;65003;49.518;11.280;2023-04-24T03:03:31;11.60;94.20
76211;DHT22;65003;49.518;11.280;2023-04-24T03:05:58;11.60;94.30
76211;DHT22;65003;49.518;11.280;2023-04-24T03:08:25;11.60;94.30
76211;DHT22;65003;49.518;11.280;2023-04-24T03:10:51;11.50;94.50
76211;DHT22;65003;49.518;11.280;2023-04-24T03:13:18;11.50;94.60
76211;DHT22;65003;49.518;11.280;2023-04-24T03:15:45;11.50;94.50
76211;DHT22;65003;49.518;11.280;2023-04-24T03:18:11;11.50;94.60
76211;DHT22;65003;49.518;11.280;2023-04-24T03:20:38;11.50;94.60
76211;DHT22;65003;49.518;11.280;2023-04-24T03:23:05;11.50;94.50
76211;DHT22;65003;49.518;11.280;2023-04-24T03:25:31;11.50;94.60
76211;DHT22;65003;49.518;11.280;2023-04-24T03:27:58;11.50;94.60
76211;DHT22;65003;49.518;11.280;2023-04-24T03:30:25;11.60;94.40
76211;DHT22;65003;49.518;11.280;2023-04-24T03:32:51;11.60;94.40
76211;DHT22;65003;49.518;11.280;2023-04-24T03:35:18;11.50;94.70
76211;DHT22;65003;49.518;11.280;2023-04-24T03:37:44;11.40;94.90
76211;DHT22;65003;49.518;11.280;2023-04-24T03:40:11;11.50;94.60
76211;DHT22;65003;49.518;11.280;2023-04-24T03:42:38;11.60;94.40
76211;DHT22;65003;49.518;11.280;2023-04-24T03:45:05;11.70;94.20
76211;DHT22;65003;49.518;11.280;2023-04-24T03:47:31;11.70;94.00
76211;DHT22;65003;49.518;11.280;2023-04-24T03:49:58;11.70;94.10
76211;DHT22;65003;49.518;11.280;2023-04-24T03:52:24;11.70;94.00
76211;DHT22;65003;49.518;11.280;2023-04-24T03:54:51;11.60;94.20
76211;DHT22;65003;49.518;11.280;2023-04-24T03:57:18;11.60;94.20
76211;DHT22;65003;49.518;11.280;2023-04-24T03:59:44;11.70;93.90
76211;DHT22;65003;49.518;11.280;2023-04-24T04:02:11;11.70;93.90
76211;DHT22;65003;49.518;11.280;2023-04-24T04:04:37;11.60;93.90
76211;DHT22;65003;49.518;11.280;2023-04-24T04:07:04;11.60;94.10
76211;DHT22;65003;49.518;11.280;2023-04-24T04:09:31;11.80;93.60
76211;DHT22;65003;49.518;11.280;2023-04-24T04:11:57;11.90;93.30
76211;DHT22;65003;49.518;11.280;2023-04-24T04:14:24;11.80;93.20
76211;DHT22;65003;49.518;11.280;2023-04-24T04:16:50;11.70;93.30
76211;DHT22;65003;49.518;11.280;2023-04-24T04:19:17;11.50;93.70
76211;DHT22;65003;49.518;11.280;2023-04-24T04:21:43;11.40;94.00
76211;DHT22;65003;49.518;11.280;2023-04-24T04:24:10;11.30;94.20
76211;DHT22;65003;49.518;11.280;2023-04-24T04:26:37;11.30;94.50
76211;DHT22;65003;49.518;11.280;2023-04-24T04:29:05;11.30;94.50
76211;DHT22;65003;49.518;11.280;2023-04-24T04:31:31;11.30;94.50
76211;DHT22;65003;49.518;11.280;2023-04-24T04:33:58;11.30;94.50
76211;DHT22;65003;49.518;11.280;2023-04-24T04:36:24;11.40;94.30
76211;DHT22;65003;49.518;11.280;2023-04-24T04:38:51;11.40;94.30
76211;DHT22;65003;49.518;11.280;2023-04-24T04:41:17;11.50;94.00
76211;DHT22;65003;49.518;11.280;2023-04-24T04:43:44;11.60;93.80
76211;DHT22;65003;49.518;11.280;2023-04-24T04:46:11;11.80;93.40
76211;DHT22;65003;49.518;11.280;2023-04-24T04:48:37;11.70;93.60
76211;DHT22;65003;49.518;11.280;2023-04-24T04:51:04;11.60;93.70
76211;DHT22;65003;49.518;11.280;2023-04-24T04:53:31;11.70;94.10
76211;DHT22;65003;49.518;11.280;2023-04-24T04:55:57;11.90;93.50
76211;DHT22;65003;49.518;11.280;2023-04-24T04:58:24;11.90;93.20
76211;DHT22;65003;49.518;11.280;2023-04-24T05:00:51;11.90;93.30
76211;DHT22;65003;49.518;11.280;2023-04-24T05:03:17;12.00;93.10
76211;DHT22;65003;49.518;11.280;2023-04-24T05:05:44;12.20;92.80
76211;DHT22;65003;49.518;11.280;2023-04-24T05:08:10;12.30;92.40
76211;DHT22;65003;49.518;11.280;2023-04-24T05:10:37;12.50;92.10
76211;DHT22;65003;49.518;11.280;2023-04-24T05:13:03;12.50;92.20
76211;DHT22;65003;49.518;11.280;2023-04-24T05:15:30;12.50;92.20
76211;DHT22;65003;49.518;11.280;2023-04-24T05:17:58;12.40;92.20
76211;DHT22;65003;49.518;11.280;2023-04-24T05:20:26;12.40;92.40
76211;DHT22;65003;49.518;11.280;2023-04-24T05:22:52;12.50;92.70
76211;DHT22;65003;49.518;11.280;2023-04-24T05:25:19;12.60;92.00
76211;DHT22;65003;49.518;11.280;2023-04-24T05:27:46;12.60;92.00
76211;DHT22;65003;49.518;11.280;2023-04-24T05:30:13;12.60;92.20
76211;DHT22;65003;49.518;11.280;2023-04-24T05:32:39;12.80;91.80
76211;DHT22;65003;49.518;11.280;2023-04-24T05:35:06;12.80;91.70
76211;DHT22;65003;49.518;11.280;2023-04-24T05:37:32;12.80;91.70
76211;DHT22;65003;49.518;11.280;2023-04-24T05:39:59;12.70;91.80
76211;DHT22;65003;49.518;11.280;2023-04-24T05:42:26;12.60;92.00
76211;DHT22;65003;49.518;11.280;2023-04-24T05:44:52;12.60;92.40
76211;DHT22;65003;49.518;11.280;2023-04-24T05:47:19;12.50;92.10
76211;DHT22;65003;49.518;11.280;2023-04-24T05:49:45;12.50;92.50
76211;DHT22;65003;49.518;11.280;2023-04-24T05:52:12;12.50;92.40
76211;DHT22;65003;49.518;11.280;2023-04-24T05:54:39;12.40;92.50
76211;DHT22;65003;49.518;11.280;2023-04-24T05:57:05;12.40;92.60
76211;DHT22;65003;49.518;11.280;2023-04-24T05:59:32;12.30;92.60
76211;DHT22;65003;49.518;11.280;2023-04-24T06:01:58;12.30;92.80
76211;DHT22;65003;49.518;11.280;2023-04-24T06:04:25;12.30;92.80
76211;DHT22;65003;49.518;11.280;2023-04-24T06:06:52;12.30;93.20
76211;DHT22;65003;49.518;11.280;2023-04-24T06:09:18;12.40;92.80
76211;DHT22;65003;49.518;11.280;2023-04-24T06:11:45;12.40;92.90
76211;DHT22;65003;49.518;11.280;2023-04-24T06:14:11;12.50;92.90
76211;DHT22;65003;49.518;11.280;2023-04-24T06:16:39;12.40;92.90
76211;DHT22;65003;49.518;11.280;2023-04-24T06:19:04;12.40;92.80
76211;DHT22;65003;49.518;11.280;2023-04-24T06:21:31;12.40;92.80
76211;DHT22;65003;49.518;11.280;2023-04-24T06:23:58;12.40;92.90
76211;DHT22;65003;49.518;11.280;2023-04-24T06:26:25;12.40;93.00
76211;DHT22;65003;49.518;11.280;2023-04-24T06:28:52;12.40;92.90
76211;DHT22;65003;49.518;11.280;2023-04-24T06:31:18;12.40;92.90
76211;DHT22;65003;49.518;11.280;2023-04-24T06:33:45;12.50;93.30
76211;DHT22;65003;49.518;11.280;2023-04-24T06:36:12;12.50;92.70
76211;DHT22;65003;49.518;11.280;2023-04-24T06:38:38;12.50;93.00
76211;DHT22;65003;49.518;11.280;2023-04-24T06:41:04;12.50;92.90
76211;DHT22;65003;49.518;11.280;2023-04-24T06:43:31;12.40;93.00
76211;DHT22;65003;49.518;11.280;2023-04-24T06:45:58;12.50;93.10
76211;DHT22;65003;49.518;11.280;2023-04-24T06:48:24;12.50;92.80
76211;DHT22;65003;49.518;11.280;2023-04-24T06:50:51;12.40;92.80
76211;DHT22;65003;49.518;11.280;2023-04-24T06:53:17;12.40;93.10
76211;DHT22;65003;49.518;11.280;2023-04-24T06:55:44;12.30;92.80
76211;DHT22;65003;49.518;11.280;2023-04-24T06:58:11;12.30;93.20
76211;DHT22;65003;49.518;11.280;2023-04-24T07:00:37;12.30;93.80
76211;DHT22;65003;49.518;11.280;2023-04-24T07:03:04;12.00;93.70
76211;DHT22;65003;49.518;11.280;2023-04-24T07:05:31;11.80;93.80
76211;DHT22;65003;49.518;11.280;2023-04-24T07:07:58;11.90;93.60
76211;DHT22;65003;49.518;11.280;2023-04-24T07:10:24;12.10;93.20
76211;DHT22;65003;49.518;11.280;2023-04-24T07:12:51;12.30;92.90
76211;DHT22;65003;49.518;11.280;2023-04-24T07:15:17;12.50;92.90
76211;DHT22;65003;49.518;11.280;2023-04-24T07:17:44;12.70;92.20
76211;DHT22;65003;49.518;11.280;2023-04-24T07:20:11;12.90;91.10
76211;DHT22;65003;49.518;11.280;2023-04-24T07:22:37;13.00;90.10
76211;DHT22;65003;49.518;11.280;2023-04-24T07:25:04;13.20;90.50
76211;DHT22;65003;49.518;11.280;2023-04-24T07:27:31;13.20;90.50
76211;DHT22;65003;49.518;11.280;2023-04-24T07:29:58;13.30;90.30
76211;DHT22;65003;49.518;11.280;2023-04-24T07:32:25;13.30;89.50
76211;DHT22;65003;49.518;11.280;2023-04-24T07:34:52;13.50;88.40
76211;DHT22;65003;49.518;11.280;2023-04-24T07:37:18;13.60;86.10
76211;DHT22;65003;49.518;11.280;2023-04-24T07:39:45;13.60;88.30
76211;DHT22;65003;49.518;11.280;2023-04-24T07:42:11;13.50;87.70
76211;DHT22;65003;49.518;11.280;2023-04-24T07:44:38;13.30;86.90
76211;DHT22;65003;49.518;11.280;2023-04-24T07:47:05;13.40;86.50
76211;DHT22;65003;49.518;11.280;2023-04-24T07:49:31;13.30;85.10
76211;DHT22;65003;49.518;11.280;2023-04-24T07:51:58;13.10;86.80
76211;DHT22;65003;49.518;11.280;2023-04-24T07:54:24;13.30;87.60
76211;DHT22;65003;49.518;11.280;2023-04-24T07:56:51;13.40;83.00
76211;DHT22;65003;49.518;11.280;2023-04-24T07:59:18;13.50;84.60
76211;DHT22;65003;49.518;11.280;2023-04-24T08:01:44;13.50;82.20
76211;DHT22;65003;49.518;11.280;2023-04-24T08:04:11;13.40;83.20
76211;DHT22;65003;49.518;11.280;2023-04-24T08:06:37;13.40;84.40
76211;DHT22;65003;49.518;11.280;2023-04-24T08:09:04;13.30;82.10
76211;DHT22;65003;49.518;11.280;2023-04-24T08:11:30;13.20;80.80
76211;DHT22;65003;49.518;11.280;2023-04-24T08:13:57;13.30;80.60
76211;DHT22;65003;49.518;11.280;2023-04-24T08:16:24;13.40;80.60
76211;DHT22;65003;49.518;11.280;2023-04-24T08:18:50;13.60;79.40
76211;DHT22;65003;49.518;11.280;2023-04-24T08:21:17;13.90;80.10
76211;DHT22;65003;49.518;11.280;2023-04-24T08:23:44;14.20;79.20
76211;DHT22;65003;49.518;11.280;2023-04-24T08:26:11;14.70;75.90
76211;DHT22;65003;49.518;11.280;2023-04-24T08:28:37;14.90;74.20
76211;DHT22;65003;49.518;11.280;2023-04-24T08:31:04;14.90;74.70
76211;DHT22;65003;49.518;11.280;2023-04-24T08:33:30;14.90;73.10
76211;DHT22;65003;49.518;11.280;2023-04-24T08:35:58;15.20;73.60
76211;DHT22;65003;49.518;11.280;2023-04-24T08:38:25;15.30;71.80
76211;DHT22;65003;49.518;11.280;2023-04-24T08:40:51;15.30;73.20
76211;DHT22;65003;49.518;11.280;2023-04-24T08:43:18;15.70;71.20
76211;DHT22;65003;49.518;11.280;2023-04-24T08:45:45;15.80;70.40
76211;DHT22;65003;49.518;11.280;2023-04-24T08:48:11;15.70;70.50
76211;DHT22;65003;49.518;11.280;2023-04-24T08:50:38;15.50;70.60
76211;DHT22;65003;49.518;11.280;2023-04-24T08:53:04;15.30;70.70
76211;DHT22;65003;49.518;11.280;2023-04-24T08:55:31;15.90;67.30
76211;DHT22;65003;49.518;11.280;2023-04-24T08:57:58;16.10;64.40
76211;DHT22;65003;49.518;11.280;2023-04-24T09:00:24;15.80;66.40
76211;DHT22;65003;49.518;11.280;2023-04-24T09:02:52;15.90;66.30
76211;DHT22;65003;49.518;11.280;2023-04-24T09:05:17;16.80;64.70
76211;DHT22;65003;49.518;11.280;2023-04-24T09:07:45;20.30;55.00
76211;DHT22;65003;49.518;11.280;2023-04-24T09:10:11;23.20;47.60
76211;DHT22;65003;49.518;11.280;2023-04-24T09:12:38;24.90;43.20
76211;DHT22;65003;49.518;11.280;2023-04-24T09:15:05;26.60;38.00
76211;DHT22;65003;49.518;11.280;2023-04-24T09:17:32;28.80;34.40
76211;DHT22;65003;49.518;11.280;2023-04-24T09:19:58;28.20;32.80
76211;DHT22;65003;49.518;11.280;2023-04-24T09:22:25;25.50;35.00
76211;DHT22;65003;49.518;11.280;2023-04-24T09:25:01;22.30;41.90
76211;DHT22;65003;49.518;11.280;2023-04-24T09:27:28;19.80;46.60
76211;DHT22;65003;49.518;11.280;2023-04-24T09:29:54;18.40;50.10
76211;DHT22;65003;49.518;11.280;2023-04-24T09:32:20;17.70;52.10
76211;DHT22;65003;49.518;11.280;2023-04-24T09:34:47;17.00;55.00
76211;DHT22;65003;49.518;11.280;2023-04-24T09:37:28;16.40;56.80
76211;DHT22;65003;49.518;11.280;2023-04-24T09:40:11;16.80;58.40
76211;DHT22;65003;49.518;11.280;2023-04-24T09:42:37;19.20;52.00
76211;DHT22;65003;49.518;11.280;2023-04-24T09:45:08;21.00;48.00
76211;DHT22;65003;49.518;11.280;2023-04-24T09:47:38;21.60;46.00
76211;DHT22;65003;49.518;11.280;2023-04-24T09:50:10;21.10;45.30
76211;DHT22;65003;49.518;11.280;2023-04-24T09:52:39;19.70;46.10
76211;DHT22;65003;49.518;11.280;2023-04-24T09:55:09;17.70;50.10
76211;DHT22;65003;49.518;11.280;2023-04-24T09:57:30;16.50;53.40
76211;DHT22;65003;49.518;11.280;2023-04-24T09:59:57;15.90;57.30
76211;DHT22;65003;49.518;11.280;2023-04-24T10:02:23;17.80;53.90
76211;DHT22;65003;49.518;11.280;2023-04-24T10:04:55;20.80;46.20
76211;DHT22;65003;49.518;11.280;2023-04-24T10:07:25;22.80;41.10
76211;DHT22;65003;49.518;11.280;2023-04-24T10:09:49;21.90;41.90
76211;DHT22;65003;49.518;11.280;2023-04-24T10:12:16;20.40;45.00
76211;DHT22;65003;49.518;11.280;2023-04-24T10:14:42;18.80;47.50
76211;DHT22;65003;49.518;11.280;2023-04-24T10:17:09;17.70;50.80
76211;DHT22;65003;49.518;11.280;2023-04-24T10:19:35;17.40;51.50
76211;DHT22;65003;49.518;11.280;2023-04-24T10:22:02;18.10;50.00
76211;DHT22;65003;49.518;11.280;2023-04-24T10:24:28;20.90;41.70
76211;DHT22;65003;49.518;11.280;2023-04-24T10:26:55;21.90;40.10
76211;DHT22;65003;49.518;11.280;2023-04-24T10:29:22;22.20;37.50
76211;DHT22;65003;49.518;11.280;2023-04-24T10:31:49;22.20;38.10
76211;DHT22;65003;49.518;11.280;2023-04-24T10:34:16;22.10;37.10
76211;DHT22;65003;49.518;11.280;2023-04-24T10:36:43;21.00;38.60
76211;DHT22;65003;49.518;11.280;2023-04-24T10:39:11;20.70;40.50
76211;DHT22;65003;49.518;11.280;2023-04-24T10:41:36;21.70;40.00
76211;DHT22;65003;49.518;11.280;2023-04-24T10:44:07;21.80;40.30
76211;DHT22;65003;49.518;11.280;2023-04-24T10:46:33;20.20;41.40
76211;DHT22;65003;49.518;11.280;2023-04-24T10:49:02;18.50;45.00
76211;DHT22;65003;49.518;11.280;2023-04-24T10:51:43;17.20;46.80
76211;DHT22;65003;49.518;11.280;2023-04-24T10:53:53;16.40;49.70
76211;DHT22;65003;49.518;11.280;2023-04-24T10:56:21;16.00;52.20
76211;DHT22;65003;49.518;11.280;2023-04-24T10:58:50;15.70;54.80
76211;DHT22;65003;49.518;11.280;2023-04-24T11:01:24;15.40;57.00
76211;DHT22;65003;49.518;11.280;2023-04-24T11:03:57;15.00;58.40
76211;DHT22;65003;49.518;11.280;2023-04-24T11:06:31;14.50;59.50
76211;DHT22;65003;49.518;11.280;2023-04-24T11:09:07;14.00;61.60
76211;DHT22;65003;49.518;11.280;2023-04-24T11:11:33;13.80;64.10
76211;DHT22;65003;49.518;11.280;2023-04-24T11:14:03;13.80;62.30
76211;DHT22;65003;49.518;11.280;2023-04-24T11:16:45;13.60;61.70
76211;DHT22;65003;49.518;11.280;2023-04-24T11:19:28;13.50;62.30
76211;DHT22;65003;49.518;11.280;2023-04-24T11:21:58;13.50;62.90
76211;DHT22;65003;49.518;11.280;2023-04-24T11:27:13;13.60;62.40
76211;DHT22;65003;49.518;11.280;2023-04-24T11:29:40;13.60;61.00
76211;DHT22;65003;49.518;11.280;2023-04-24T11:32:15;13.80;62.10
76211;DHT22;65003;49.518;11.280;2023-04-24T11:34:41;14.00;57.90
76211;DHT22;65003;49.518;11.280;2023-04-24T11:37:07;14.30;56.70
76211;DHT22;65003;49.518;11.280;2023-04-24T11:39:36;14.50;55.90
76211;DHT22;65003;49.518;11.280;2023-04-24T11:42:03;14.70;55.50
76211;DHT22;65003;49.518;11.280;2023-04-24T11:44:29;14.70;53.10
76211;DHT22;65003;49.518;11.280;2023-04-24T11:46:56;14.50;54.00
76211;DHT22;65003;49.518;11.280;2023-04-24T11:49:23;14.50;53.90
76211;DHT22;65003;49.518;11.280;2023-04-24T11:51:50;14.30;54.80
76211;DHT22;65003;49.518;11.280;2023-04-24T11:54:16;14.40;54.60
76211;DHT22;65003;49.518;11.280;2023-04-24T11:56:46;14.50;55.60
76211;DHT22;65003;49.518;11.280;2023-04-24T11:59:14;14.80;54.30
76211;DHT22;65003;49.518;11.280;2023-04-24T12:01:43;15.10;54.70
76211;DHT22;65003;49.518;11.280;2023-04-24T12:04:09;14.90;54.00
76211;DHT22;65003;49.518;11.280;2023-04-24T12:06:35;14.50;55.40
76211;DHT22;65003;49.518;11.280;2023-04-24T12:09:02;14.20;56.60
76211;DHT22;65003;49.518;11.280;2023-04-24T12:11:28;13.90;57.60
76211;DHT22;65003;49.518;11.280;2023-04-24T12:13:55;13.50;58.90
76211;DHT22;65003;49.518;11.280;2023-04-24T12:16:22;13.20;60.10
76211;DHT22;65003;49.518;11.280;2023-04-24T12:18:50;12.90;60.00
76211;DHT22;65003;49.518;11.280;2023-04-24T12:21:15;12.80;60.60
76211;DHT22;65003;49.518;11.280;2023-04-24T12:23:43;12.70;61.30
76211;DHT22;65003;49.518;11.280;2023-04-24T12:26:09;12.80;59.80
76211;DHT22;65003;49.518;11.280;2023-04-24T12:28:36;12.90;59.30
76211;DHT22;65003;49.518;11.280;2023-04-24T12:31:02;13.20;59.70
76211;DHT22;65003;49.518;11.280;2023-04-24T12:33:32;13.40;59.30
76211;DHT22;65003;49.518;11.280;2023-04-24T12:35:55;13.50;59.00
76211;DHT22;65003;49.518;11.280;2023-04-24T12:38:22;13.70;58.80
76211;DHT22;65003;49.518;11.280;2023-04-24T12:41:00;13.90;57.60
76211;DHT22;65003;49.518;11.280;2023-04-24T12:43:16;14.10;58.50
76211;DHT22;65003;49.518;11.280;2023-04-24T12:45:42;14.20;57.70
76211;DHT22;65003;49.518;11.280;2023-04-24T12:48:08;14.30;57.70
76211;DHT22;65003;49.518;11.280;2023-04-24T12:50:35;14.50;57.30
76211;DHT22;65003;49.518;11.280;2023-04-24T12:53:02;14.70;57.40
76211;DHT22;65003;49.518;11.280;2023-04-24T12:55:28;14.60;56.10
76211;DHT22;65003;49.518;11.280;2023-04-24T12:57:55;14.40;56.40
76211;DHT22;65003;49.518;11.280;2023-04-24T13:00:22;14.30;56.70
76211;DHT22;65003;49.518;11.280;2023-04-24T13:02:48;14.30;56.50
76211;DHT22;65003;49.518;11.280;2023-04-24T13:05:15;14.30;57.90
76211;DHT22;65003;49.518;11.280;2023-04-24T13:07:41;14.40;58.40
76211;DHT22;65003;49.518;11.280;2023-04-24T13:10:09;14.30;58.50
76211;DHT22;65003;49.518;11.280;2023-04-24T13:12:35;14.20;59.20
76211;DHT22;65003;49.518;11.280;2023-04-24T13:15:02;13.90;58.30
76211;DHT22;65003;49.518;11.280;2023-04-24T13:17:28;13.90;58.00
76211;DHT22;65003;49.518;11.280;2023-04-24T13:19:55;13.90;57.80
76211;DHT22;65003;49.518;11.280;2023-04-24T13:22:22;14.00;57.90
76211;DHT22;65003;49.518;11.280;2023-04-24T13:24:48;14.20;58.00
76211;DHT22;65003;49.518;11.280;2023-04-24T13:27:15;14.40;56.90
76211;DHT22;65003;49.518;11.280;2023-04-24T13:29:41;14.70;56.00
76211;DHT22;65003;49.518;11.280;2023-04-24T13:32:08;14.70;55.30
76211;DHT22;65003;49.518;11.280;2023-04-24T13:34:35;14.80;55.00
76211;DHT22;65003;49.518;11.280;2023-04-24T13:37:02;14.80;54.20
76211;DHT22;65003;49.518;11.280;2023-04-24T13:39:28;14.70;54.80
76211;DHT22;65003;49.518;11.280;2023-04-24T13:41:55;14.40;56.40
76211;DHT22;65003;49.518;11.280;2023-04-24T13:44:21;14.10;59.40
76211;DHT22;65003;49.518;11.280;2023-04-24T13:46:48;13.70;59.60
76211;DHT22;65003;49.518;11.280;2023-04-24T13:49:15;13.50;60.70
76211;DHT22;65003;49.518;11.280;2023-04-24T13:51:42;13.30;61.70
76211;DHT22;65003;49.518;11.280;2023-04-24T13:54:08;13.30;62.70
76211;DHT22;65003;49.518;11.280;2023-04-24T13:56:34;13.20;62.20
76211;DHT22;65003;49.518;11.280;2023-04-24T13:59:01;13.30;60.50
76211;DHT22;65003;49.518;11.280;2023-04-24T14:01:27;13.40;61.90
76211;DHT22;65003;49.518;11.280;2023-04-24T14:03:54;13.40;61.90
76211;DHT22;65003;49.518;11.280;2023-04-24T14:06:21;13.30;61.40
76211;DHT22;65003;49.518;11.280;2023-04-24T14:08:47;13.40;61.80
76211;DHT22;65003;49.518;11.280;2023-04-24T14:11:14;13.50;61.10
76211;DHT22;65003;49.518;11.280;2023-04-24T14:13:41;13.50;57.70
76211;DHT22;65003;49.518;11.280;2023-04-24T14:16:07;13.40;57.70
76211;DHT22;65003;49.518;11.280;2023-04-24T14:18:34;13.30;56.20
76211;DHT22;65003;49.518;11.280;2023-04-24T14:21:00;13.30;56.20
76211;DHT22;65003;49.518;11.280;2023-04-24T14:23:27;13.20;56.60
76211;DHT22;65003;49.518;11.280;2023-04-24T14:25:53;13.20;56.80
76211;DHT22;65003;49.518;11.280;2023-04-24T14:28:20;13.20;58.10
76211;DHT22;65003;49.518;11.280;2023-04-24T14:30:47;13.20;58.60
76211;DHT22;65003;49.518;11.280;2023-04-24T14:33:13;13.40;59.70
76211;DHT22;65003;49.518;11.280;2023-04-24T14:35:40;13.60;59.40
76211;DHT22;65003;49.518;11.280;2023-04-24T14:38:07;13.70;58.80
76211;DHT22;65003;49.518;11.280;2023-04-24T14:40:33;13.70;58.10
76211;DHT22;65003;49.518;11.280;2023-04-24T14:43:00;13.80;58.90
76211;DHT22;65003;49.518;11.280;2023-04-24T14:45:27;13.90;59.40
76211;DHT22;65003;49.518;11.280;2023-04-24T14:47:53;13.90;58.90
76211;DHT22;65003;49.518;11.280;2023-04-24T14:50:20;13.90;59.70
76211;DHT22;65003;49.518;11.280;2023-04-24T14:52:46;13.90;59.00
76211;DHT22;65003;49.518;11.280;2023-04-24T14:55:13;13.90;59.50
76211;DHT22;65003;49.518;11.280;2023-04-24T14:57:39;13.90;58.60
76211;DHT22;65003;49.518;11.280;2023-04-24T15:00:06;13.80;59.80
76211;DHT22;65003;49.518;11.280;2023-04-24T15:02:33;13.70;59.60
76211;DHT22;65003;49.518;11.280;2023-04-24T15:05:00;13.60;60.80
76211;DHT22;65003;49.518;11.280;2023-04-24T15:07:26;13.50;60.80
76211;DHT22;65003;49.518;11.280;2023-04-24T15:09:53;13.40;61.40
76211;DHT22;65003;49.518;11.280;2023-04-24T15:12:20;13.40;60.10
76211;DHT22;65003;49.518;11.280;2023-04-24T15:14:46;13.50;59.60